sensor_id;sensor_type;location;lat;lon;timestamp;temperature;humidity
14020;DHT22;7085;51.428;6.796;2022-07-29T00:08:49;19.80;1.00
14020;DHT22;7085;51.428;6.796;2022-07-29T00:11:15;19.80;1.00
14020;DHT22;7085;51.428;6.796;2022-07-29T00:18:36;19.80;1.00
14020;DHT22;7085;51.428;6.796;2022-07-29T00:21:04;19.70;1.00
14020;DHT22;7085;51.428;6.796;2022-07-29T00:25:59;19.70;1.00
14020;DHT22;7085;51.428;6.796;2022-07-29T00:30:53;19.60;1.00
14020;DHT22;7085;51.428;6.796;2022-07-29T00:33:20;19.60;1.00
14020;DHT22;7085;51.428;6.796;2022-07-29T00:38:15;19.70;1.00
14020;DHT22;7085;51.428;6.796;2022-07-29T00:40:43;19.60;1.00
14020;DHT22;7085;51.428;6.796;2022-07-29T00:43:12;19.50;1.00
14020;DHT22;7085;51.428;6.796;2022-07-29T00:45:39;19.50;1.00
14020;DHT22;7085;51.428;6.796;2022-07-29T00:48:06;19.50;1.00
14020;DHT22;7085;51.428;6.796;2022-07-29T00:50:35;19.50;1.00
14020;DHT22;7085;51.428;6.796;2022-07-29T00:53:02;19.40;1.00
14020;DHT22;7085;51.428;6.796;2022-07-29T00:55:30;19.40;1.00
14020;DHT22;7085;51.428;6.796;2022-07-29T00:57:58;19.40;1.00
14020;DHT22;7085;51.428;6.796;2022-07-29T01:00:27;19.30;1.00
14020;DHT22;7085;51.428;6.796;2022-07-29T01:02:54;19.30;1.00
14020;DHT22;7085;51.428;6.796;2022-07-29T01:05:23;19.30;1.00
14020;DHT22;7085;51.428;6.796;2022-07-29T01:07:52;19.30;1.00
14020;DHT22;7085;51.428;6.796;2022-07-29T01:10:20;19.30;1.00
14020;DHT22;7085;51.428;6.796;2022-07-29T01:12:49;19.30;1.00
14020;DHT22;7085;51.428;6.796;2022-07-29T01:15:17;19.30;1.00
14020;DHT22;7085;51.428;6.796;2022-07-29T01:17:49;19.30;1.00
14020;DHT22;7085;51.428;6.796;2022-07-29T01:20:24;19.30;1.00
14020;DHT22;7085;51.428;6.796;2022-07-29T01:26:25;19.20;1.00
14020;DHT22;7085;51.428;6.796;2022-07-29T01:29:01;19.20;1.00
14020;DHT22;7085;51.428;6.796;2022-07-29T01:31:32;19.20;1.00
14020;DHT22;7085;51.428;6.796;2022-07-29T01:34:03;19.10;1.00
14020;DHT22;7085;51.428;6.796;2022-07-29T01:36:33;19.20;1.00
14020;DHT22;7085;51.428;6.796;2022-07-29T01:39:05;19.10;1.00
14020;DHT22;7085;51.428;6.796;2022-07-29T01:41:34;19.20;1.00
14020;DHT22;7085;51.428;6.796;2022-07-29T01:44:11;19.20;1.00
14020;DHT22;7085;51.428;6.796;2022-07-29T01:46:56;19.10;1.00
14020;DHT22;7085;51.428;6.796;2022-07-29T01:49:27;19.20;1.00
14020;DHT22;7085;51.428;6.796;2022-07-29T01:51:59;19.10;1.00
14020;DHT22;7085;51.428;6.796;2022-07-29T01:54:30;19.20;1.00
14020;DHT22;7085;51.428;6.796;2022-07-29T01:57:00;19.20;1.00
14020;DHT22;7085;51.428;6.796;2022-07-29T01:59:29;19.20;1.00
14020;DHT22;7085;51.428;6.796;2022-07-29T02:01:58;19.20;1.00
14020;DHT22;7085;51.428;6.796;2022-07-29T02:04:26;19.10;1.00
14020;DHT22;7085;51.428;6.796;2022-07-29T02:06:57;19.10;1.00
14020;DHT22;7085;51.428;6.796;2022-07-29T02:09:25;19.10;1.00
14020;DHT22;7085;51.428;6.796;2022-07-29T02:11:54;19.00;1.00
14020;DHT22;7085;51.428;6.796;2022-07-29T02:14:23;19.00;2.90
14020;DHT22;7085;51.428;6.796;2022-07-29T02:16:54;19.00;1.70
14020;DHT22;7085;51.428;6.796;2022-07-29T02:19:23;19.00;2.00
14020;DHT22;7085;51.428;6.796;2022-07-29T02:21:53;19.00;1.40
14020;DHT22;7085;51.428;6.796;2022-07-29T02:24:22;18.80;3.10
14020;DHT22;7085;51.428;6.796;2022-07-29T02:26:53;18.90;6.10
14020;DHT22;7085;51.428;6.796;2022-07-29T02:29:21;19.00;6.60
14020;DHT22;7085;51.428;6.796;2022-07-29T02:31:49;19.00;5.40
14020;DHT22;7085;51.428;6.796;2022-07-29T02:34:19;19.00;5.10
14020;DHT22;7085;51.428;6.796;2022-07-29T02:36:48;19.00;3.10
14020;DHT22;7085;51.428;6.796;2022-07-29T02:39:15;19.00;2.20
14020;DHT22;7085;51.428;6.796;2022-07-29T02:41:45;19.00;3.00
14020;DHT22;7085;51.428;6.796;2022-07-29T02:44:14;19.00;3.90
14020;DHT22;7085;51.428;6.796;2022-07-29T02:46:45;19.10;1.90
14020;DHT22;7085;51.428;6.796;2022-07-29T02:49:16;19.00;2.70
14020;DHT22;7085;51.428;6.796;2022-07-29T02:51:49;19.00;4.30
14020;DHT22;7085;51.428;6.796;2022-07-29T02:54:23;19.10;9.00
14020;DHT22;7085;51.428;6.796;2022-07-29T02:56:52;19.00;44.10
14020;DHT22;7085;51.428;6.796;2022-07-29T02:59:25;19.00;70.70
14020;DHT22;7085;51.428;6.796;2022-07-29T03:01:55;18.30;75.50
14020;DHT22;7085;51.428;6.796;2022-07-29T03:04:24;18.80;99.90
14020;DHT22;7085;51.428;6.796;2022-07-29T03:06:55;18.60;99.90
14020;DHT22;7085;51.428;6.796;2022-07-29T03:09:25;18.50;99.90
14020;DHT22;7085;51.428;6.796;2022-07-29T03:11:53;18.50;99.90
14020;DHT22;7085;51.428;6.796;2022-07-29T03:16:48;18.30;99.90
14020;DHT22;7085;51.428;6.796;2022-07-29T03:19:16;18.10;99.90
14020;DHT22;7085;51.428;6.796;2022-07-29T03:21:43;18.20;99.90
14020;DHT22;7085;51.428;6.796;2022-07-29T03:24:24;18.10;99.90
14020;DHT22;7085;51.428;6.796;2022-07-29T03:29:18;18.10;99.90
14020;DHT22;7085;51.428;6.796;2022-07-29T03:31:44;18.10;99.90
14020;DHT22;7085;51.428;6.796;2022-07-29T03:36:38;18.20;99.90
14020;DHT22;7085;51.428;6.796;2022-07-29T03:39:05;18.10;99.90
14020;DHT22;7085;51.428;6.796;2022-07-29T03:41:36;18.10;99.90
14020;DHT22;7085;51.428;6.796;2022-07-29T03:44:04;18.10;99.90
14020;DHT22;7085;51.428;6.796;2022-07-29T03:46:32;18.10;99.90
14020;DHT22;7085;51.428;6.796;2022-07-29T03:49:01;18.10;99.90
14020;DHT22;7085;51.428;6.796;2022-07-29T03:53:56;18.10;99.90
14020;DHT22;7085;51.428;6.796;2022-07-29T03:56:24;18.10;99.90
14020;DHT22;7085;51.428;6.796;2022-07-29T03:58:53;18.10;99.90
14020;DHT22;7085;51.428;6.796;2022-07-29T04:01:21;18.00;99.90
14020;DHT22;7085;51.428;6.796;2022-07-29T04:03:48;17.90;99.90
14020;DHT22;7085;51.428;6.796;2022-07-29T04:11:09;17.50;99.90
14020;DHT22;7085;51.428;6.796;2022-07-29T04:16:05;17.20;99.90
14020;DHT22;7085;51.428;6.796;2022-07-29T04:18:31;17.00;99.90
14020;DHT22;7085;51.428;6.796;2022-07-29T04:20:58;17.00;99.90
14020;DHT22;7085;51.428;6.796;2022-07-29T04:23:26;17.00;99.90
14020;DHT22;7085;51.428;6.796;2022-07-29T04:25:52;17.00;99.90
14020;DHT22;7085;51.428;6.796;2022-07-29T04:30:46;17.00;99.90
14020;DHT22;7085;51.428;6.796;2022-07-29T04:33:14;17.00;99.90
14020;DHT22;7085;51.428;6.796;2022-07-29T04:38:08;16.80;99.90
14020;DHT22;7085;51.428;6.796;2022-07-29T04:40:35;16.70;99.90
14020;DHT22;7085;51.428;6.796;2022-07-29T04:47:56;15.30;99.90
14020;DHT22;7085;51.428;6.796;2022-07-29T04:50:24;16.60;99.90
14020;DHT22;7085;51.428;6.796;2022-07-29T04:57:45;16.50;99.90
14020;DHT22;7085;51.428;6.796;2022-07-29T05:00:12;16.40;99.90
14020;DHT22;7085;51.428;6.796;2022-07-29T05:05:07;16.40;99.90
14020;DHT22;7085;51.428;6.796;2022-07-29T05:07:35;16.50;99.90
14020;DHT22;7085;51.428;6.796;2022-07-29T05:12:29;16.70;99.90
14020;DHT22;7085;51.428;6.796;2022-07-29T05:19:49;16.70;99.90
14020;DHT22;7085;51.428;6.796;2022-07-29T05:24:45;16.70;99.90
14020;DHT22;7085;51.428;6.796;2022-07-29T05:27:12;16.60;99.90
14020;DHT22;7085;51.428;6.796;2022-07-29T05:41:56;16.40;99.90
14020;DHT22;7085;51.428;6.796;2022-07-29T05:44:23;16.30;99.90
14020;DHT22;7085;51.428;6.796;2022-07-29T05:46:49;16.30;99.90
14020;DHT22;7085;51.428;6.796;2022-07-29T05:51:43;16.30;99.90
14020;DHT22;7085;51.428;6.796;2022-07-29T05:54:10;16.30;99.90
14020;DHT22;7085;51.428;6.796;2022-07-29T05:59:05;16.30;99.90
14020;DHT22;7085;51.428;6.796;2022-07-29T06:01:32;16.20;99.90
14020;DHT22;7085;51.428;6.796;2022-07-29T06:03:58;16.60;99.90
14020;DHT22;7085;51.428;6.796;2022-07-29T06:13:46;16.30;99.90
14020;DHT22;7085;51.428;6.796;2022-07-29T06:16:14;16.40;99.90
14020;DHT22;7085;51.428;6.796;2022-07-29T06:21:10;16.50;99.90
14020;DHT22;7085;51.428;6.796;2022-07-29T06:23:37;16.60;99.90
14020;DHT22;7085;51.428;6.796;2022-07-29T06:28:31;16.80;99.90
14020;DHT22;7085;51.428;6.796;2022-07-29T06:33:26;17.10;99.90
14020;DHT22;7085;51.428;6.796;2022-07-29T06:35:53;17.20;99.90
14020;DHT22;7085;51.428;6.796;2022-07-29T06:38:20;17.10;99.90
14020;DHT22;7085;51.428;6.796;2022-07-29T06:43:32;17.10;99.90
14020;DHT22;7085;51.428;6.796;2022-07-29T06:46:02;17.20;99.90
14020;DHT22;7085;51.428;6.796;2022-07-29T06:48:31;17.20;99.90
14020;DHT22;7085;51.428;6.796;2022-07-29T06:50:59;17.10;99.90
14020;DHT22;7085;51.428;6.796;2022-07-29T06:53:27;17.20;99.90
14020;DHT22;7085;51.428;6.796;2022-07-29T07:03:18;17.10;99.90
14020;DHT22;7085;51.428;6.796;2022-07-29T07:05:46;17.10;99.90
14020;DHT22;7085;51.428;6.796;2022-07-29T07:13:09;17.20;99.90
14020;DHT22;7085;51.428;6.796;2022-07-29T07:15:36;17.20;99.90
14020;DHT22;7085;51.428;6.796;2022-07-29T07:18:03;17.30;99.90
14020;DHT22;7085;51.428;6.796;2022-07-29T07:22:59;17.40;99.90
14020;DHT22;7085;51.428;6.796;2022-07-29T07:25:26;17.50;99.90
14020;DHT22;7085;51.428;6.796;2022-07-29T07:27:53;17.50;99.90
14020;DHT22;7085;51.428;6.796;2022-07-29T07:40:11;17.60;99.90
14020;DHT22;7085;51.428;6.796;2022-07-29T07:45:06;17.60;99.90
14020;DHT22;7085;51.428;6.796;2022-07-29T07:50:03;18.40;99.90
14020;DHT22;7085;51.428;6.796;2022-07-29T07:54:57;17.90;99.90
14020;DHT22;7085;51.428;6.796;2022-07-29T07:57:25;17.80;99.90
14020;DHT22;7085;51.428;6.796;2022-07-29T07:59:51;17.90;99.90
14020;DHT22;7085;51.428;6.796;2022-07-29T08:04:45;17.70;99.90
14020;DHT22;7085;51.428;6.796;2022-07-29T08:09:40;17.60;99.90
14020;DHT22;7085;51.428;6.796;2022-07-29T08:12:07;17.60;99.90
14020;DHT22;7085;51.428;6.796;2022-07-29T08:14:35;17.60;99.90
14020;DHT22;7085;51.428;6.796;2022-07-29T08:17:02;17.50;99.90
14020;DHT22;7085;51.428;6.796;2022-07-29T08:19:29;17.40;99.90
14020;DHT22;7085;51.428;6.796;2022-07-29T08:24:23;17.50;99.90
14020;DHT22;7085;51.428;6.796;2022-07-29T08:29:36;17.60;99.90
14020;DHT22;7085;51.428;6.796;2022-07-29T08:32:04;17.60;99.90
14020;DHT22;7085;51.428;6.796;2022-07-29T08:36:58;17.70;99.90
14020;DHT22;7085;51.428;6.796;2022-07-29T08:39:25;17.80;99.90
14020;DHT22;7085;51.428;6.796;2022-07-29T08:41:52;18.00;99.90
14020;DHT22;7085;51.428;6.796;2022-07-29T08:44:20;18.10;99.90
14020;DHT22;7085;51.428;6.796;2022-07-29T08:46:49;18.30;99.90
14020;DHT22;7085;51.428;6.796;2022-07-29T08:49:16;18.50;99.90
14020;DHT22;7085;51.428;6.796;2022-07-29T08:51:43;18.60;99.90
14020;DHT22;7085;51.428;6.796;2022-07-29T08:56:39;18.60;99.90
14020;DHT22;7085;51.428;6.796;2022-07-29T08:59:07;18.20;99.90
14020;DHT22;7085;51.428;6.796;2022-07-29T09:01:37;18.50;99.90
14020;DHT22;7085;51.428;6.796;2022-07-29T09:04:10;18.40;99.90
14020;DHT22;7085;51.428;6.796;2022-07-29T09:06:42;18.50;99.90
14020;DHT22;7085;51.428;6.796;2022-07-29T09:11:36;18.40;99.90
14020;DHT22;7085;51.428;6.796;2022-07-29T09:14:03;18.40;99.90
14020;DHT22;7085;51.428;6.796;2022-07-29T09:16:47;18.40;99.90
14020;DHT22;7085;51.428;6.796;2022-07-29T09:19:27;18.30;99.90
14020;DHT22;7085;51.428;6.796;2022-07-29T09:21:55;18.40;99.90
14020;DHT22;7085;51.428;6.796;2022-07-29T09:24:27;18.40;99.90
14020;DHT22;7085;51.428;6.796;2022-07-29T09:29:23;18.50;99.90
14020;DHT22;7085;51.428;6.796;2022-07-29T09:31:51;18.70;99.90
14020;DHT22;7085;51.428;6.796;2022-07-29T09:34:22;18.70;99.90
14020;DHT22;7085;51.428;6.796;2022-07-29T09:36:52;18.70;99.90
14020;DHT22;7085;51.428;6.796;2022-07-29T09:39:28;18.70;99.90
14020;DHT22;7085;51.428;6.796;2022-07-29T09:41:57;18.70;99.90
14020;DHT22;7085;51.428;6.796;2022-07-29T09:46:54;18.90;99.90
14020;DHT22;7085;51.428;6.796;2022-07-29T09:52:00;18.80;99.90
14020;DHT22;7085;51.428;6.796;2022-07-29T09:54:30;18.80;99.90
14020;DHT22;7085;51.428;6.796;2022-07-29T09:57:02;18.90;99.90
14020;DHT22;7085;51.428;6.796;2022-07-29T09:59:30;18.90;99.90
14020;DHT22;7085;51.428;6.796;2022-07-29T10:01:56;19.00;99.90
14020;DHT22;7085;51.428;6.796;2022-07-29T10:06:58;18.80;99.90
14020;DHT22;7085;51.428;6.796;2022-07-29T10:09:26;18.90;99.90
14020;DHT22;7085;51.428;6.796;2022-07-29T10:12:04;18.90;99.90
14020;DHT22;7085;51.428;6.796;2022-07-29T10:14:32;18.90;99.90
14020;DHT22;7085;51.428;6.796;2022-07-29T10:17:00;19.60;99.90
14020;DHT22;7085;51.428;6.796;2022-07-29T10:19:28;19.40;99.90
14020;DHT22;7085;51.428;6.796;2022-07-29T10:21:56;19.70;99.90
14020;DHT22;7085;51.428;6.796;2022-07-29T10:24:26;20.20;99.90
14020;DHT22;7085;51.428;6.796;2022-07-29T10:26:54;20.50;99.90
14020;DHT22;7085;51.428;6.796;2022-07-29T10:31:58;20.80;99.90
14020;DHT22;7085;51.428;6.796;2022-07-29T10:34:42;21.50;99.90
14020;DHT22;7085;51.428;6.796;2022-07-29T10:37:19;22.20;99.90
14020;DHT22;7085;51.428;6.796;2022-07-29T10:39:55;23.00;99.90
14020;DHT22;7085;51.428;6.796;2022-07-29T10:42:25;23.10;98.70
14020;DHT22;7085;51.428;6.796;2022-07-29T10:47:22;23.00;57.20
14020;DHT22;7085;51.428;6.796;2022-07-29T10:49:57;23.30;73.50
14020;DHT22;7085;51.428;6.796;2022-07-29T10:52:25;24.10;49.50
14020;DHT22;7085;51.428;6.796;2022-07-29T10:55:30;25.10;24.90
14020;DHT22;7085;51.428;6.796;2022-07-29T10:58:12;25.70;3.40
14020;DHT22;7085;51.428;6.796;2022-07-29T11:00:39;26.40;1.00
14020;DHT22;7085;51.428;6.796;2022-07-29T11:05:54;28.30;1.00
14020;DHT22;7085;51.428;6.796;2022-07-29T11:08:24;29.20;1.00
14020;DHT22;7085;51.428;6.796;2022-07-29T11:17:01;28.90;1.00
14020;DHT22;7085;51.428;6.796;2022-07-29T11:19:29;28.20;1.00
14020;DHT22;7085;51.428;6.796;2022-07-29T11:21:56;27.90;1.00
14020;DHT22;7085;51.428;6.796;2022-07-29T11:24:25;27.70;1.00
14020;DHT22;7085;51.428;6.796;2022-07-29T11:27:15;27.20;1.00
14020;DHT22;7085;51.428;6.796;2022-07-29T11:29:53;27.90;1.00
14020;DHT22;7085;51.428;6.796;2022-07-29T11:32:22;27.40;1.00
14020;DHT22;7085;51.428;6.796;2022-07-29T11:35:09;27.60;1.00
14020;DHT22;7085;51.428;6.796;2022-07-29T11:37:36;27.70;1.00
14020;DHT22;7085;51.428;6.796;2022-07-29T11:40:18;28.40;1.00
14020;DHT22;7085;51.428;6.796;2022-07-29T11:42:47;28.70;1.00
14020;DHT22;7085;51.428;6.796;2022-07-29T11:45:17;28.50;1.00
14020;DHT22;7085;51.428;6.796;2022-07-29T11:47:55;27.70;1.00
14020;DHT22;7085;51.428;6.796;2022-07-29T11:50:33;25.70;1.00
14020;DHT22;7085;51.428;6.796;2022-07-29T11:53:01;25.10;1.00
14020;DHT22;7085;51.428;6.796;2022-07-29T11:58:00;25.10;13.50
14020;DHT22;7085;51.428;6.796;2022-07-29T12:00:29;25.20;1.00
14020;DHT22;7085;51.428;6.796;2022-07-29T12:02:57;24.80;1.80
14020;DHT22;7085;51.428;6.796;2022-07-29T12:05:33;24.80;1.00
14020;DHT22;7085;51.428;6.796;2022-07-29T12:08:11;25.10;1.00
14020;DHT22;7085;51.428;6.796;2022-07-29T12:10:39;25.20;1.00
14020;DHT22;7085;51.428;6.796;2022-07-29T12:13:08;25.00;1.00
14020;DHT22;7085;51.428;6.796;2022-07-29T12:15:35;25.00;1.00
14020;DHT22;7085;51.428;6.796;2022-07-29T12:18:13;24.90;1.00
14020;DHT22;7085;51.428;6.796;2022-07-29T12:23:08;24.40;1.00
14020;DHT22;7085;51.428;6.796;2022-07-29T12:25:38;24.30;1.00
14020;DHT22;7085;51.428;6.796;2022-07-29T12:28:08;24.50;1.00
14020;DHT22;7085;51.428;6.796;2022-07-29T12:30:37;24.60;1.00
14020;DHT22;7085;51.428;6.796;2022-07-29T12:33:16;24.60;1.00
14020;DHT22;7085;51.428;6.796;2022-07-29T12:35:45;24.40;1.00
14020;DHT22;7085;51.428;6.796;2022-07-29T12:38:13;24.40;1.00
14020;DHT22;7085;51.428;6.796;2022-07-29T12:43:14;24.20;1.00
14020;DHT22;7085;51.428;6.796;2022-07-29T12:45:43;24.20;1.00
14020;DHT22;7085;51.428;6.796;2022-07-29T12:48:11;24.30;3.90
14020;DHT22;7085;51.428;6.796;2022-07-29T12:50:52;24.20;1.00
14020;DHT22;7085;51.428;6.796;2022-07-29T12:53:19;24.10;2.10
14020;DHT22;7085;51.428;6.796;2022-07-29T12:55:48;24.30;1.00
14020;DHT22;7085;51.428;6.796;2022-07-29T12:58:28;24.50;1.00
14020;DHT22;7085;51.428;6.796;2022-07-29T13:01:01;24.70;1.00
14020;DHT22;7085;51.428;6.796;2022-07-29T13:10:49;26.10;1.00
14020;DHT22;7085;51.428;6.796;2022-07-29T13:15:45;26.40;1.00
14020;DHT22;7085;51.428;6.796;2022-07-29T13:18:29;26.40;1.00
14020;DHT22;7085;51.428;6.796;2022-07-29T13:20:57;27.00;1.00
14020;DHT22;7085;51.428;6.796;2022-07-29T13:26:05;25.70;1.00
14020;DHT22;7085;51.428;6.796;2022-07-29T13:28:32;25.70;1.00
14020;DHT22;7085;51.428;6.796;2022-07-29T13:31:01;25.90;1.00
14020;DHT22;7085;51.428;6.796;2022-07-29T13:43:16;31.00;1.00
14020;DHT22;7085;51.428;6.796;2022-07-29T13:45:43;29.70;1.00
14020;DHT22;7085;51.428;6.796;2022-07-29T13:48:11;29.40;1.00
14020;DHT22;7085;51.428;6.796;2022-07-29T13:50:38;28.50;1.00
14020;DHT22;7085;51.428;6.796;2022-07-29T13:55:31;29.10;1.00
14020;DHT22;7085;51.428;6.796;2022-07-29T13:57:58;29.40;1.00
14020;DHT22;7085;51.428;6.796;2022-07-29T14:02:53;28.70;1.00
14020;DHT22;7085;51.428;6.796;2022-07-29T14:05:21;29.00;1.00
14020;DHT22;7085;51.428;6.796;2022-07-29T14:20:04;30.20;1.00
14020;DHT22;7085;51.428;6.796;2022-07-29T14:22:32;30.20;1.00
14020;DHT22;7085;51.428;6.796;2022-07-29T14:24:59;30.20;1.00
14020;DHT22;7085;51.428;6.796;2022-07-29T14:27:25;30.10;1.00
14020;DHT22;7085;51.428;6.796;2022-07-29T14:29:52;30.50;1.00
14020;DHT22;7085;51.428;6.796;2022-07-29T14:34:46;30.70;1.00
14020;DHT22;7085;51.428;6.796;2022-07-29T14:37:12;30.90;1.00
14020;DHT22;7085;51.428;6.796;2022-07-29T14:39:40;30.10;1.00
14020;DHT22;7085;51.428;6.796;2022-07-29T14:44:35;29.70;1.00
14020;DHT22;7085;51.428;6.796;2022-07-29T14:49:29;30.20;1.00
14020;DHT22;7085;51.428;6.796;2022-07-29T14:54:23;29.40;1.00
14020;DHT22;7085;51.428;6.796;2022-07-29T14:56:51;29.00;1.00
14020;DHT22;7085;51.428;6.796;2022-07-29T14:59:22;29.20;1.00
14020;DHT22;7085;51.428;6.796;2022-07-29T15:04:16;28.90;1.00
14020;DHT22;7085;51.428;6.796;2022-07-29T15:14:05;29.70;1.00
14020;DHT22;7085;51.428;6.796;2022-07-29T15:16:32;29.70;1.00
14020;DHT22;7085;51.428;6.796;2022-07-29T15:18:59;29.80;1.00
14020;DHT22;7085;51.428;6.796;2022-07-29T15:31:16;30.50;1.00
14020;DHT22;7085;51.428;6.796;2022-07-29T15:38:38;30.00;1.00
14020;DHT22;7085;51.428;6.796;2022-07-29T15:41:06;30.00;1.00
14020;DHT22;7085;51.428;6.796;2022-07-29T15:43:32;30.30;1.00
14020;DHT22;7085;51.428;6.796;2022-07-29T15:46:01;30.10;1.00
14020;DHT22;7085;51.428;6.796;2022-07-29T15:48:46;30.00;1.00
14020;DHT22;7085;51.428;6.796;2022-07-29T15:53:40;29.70;1.00
14020;DHT22;7085;51.428;6.796;2022-07-29T16:03:28;28.60;1.00
14020;DHT22;7085;51.428;6.796;2022-07-29T16:05:56;28.40;1.00
14020;DHT22;7085;51.428;6.796;2022-07-29T16:10:49;27.70;1.00
14020;DHT22;7085;51.428;6.796;2022-07-29T16:15:44;26.70;1.00
14020;DHT22;7085;51.428;6.796;2022-07-29T16:23:08;26.20;1.00
14020;DHT22;7085;51.428;6.796;2022-07-29T16:25:37;25.90;1.00
14020;DHT22;7085;51.428;6.796;2022-07-29T16:28:04;26.00;1.00
14020;DHT22;7085;51.428;6.796;2022-07-29T16:30:33;26.10;1.00
14020;DHT22;7085;51.428;6.796;2022-07-29T16:33:00;25.90;1.00
14020;DHT22;7085;51.428;6.796;2022-07-29T16:35:27;26.00;1.00
14020;DHT22;7085;51.428;6.796;2022-07-29T16:37:55;26.20;1.00
14020;DHT22;7085;51.428;6.796;2022-07-29T16:40:23;26.10;1.00
14020;DHT22;7085;51.428;6.796;2022-07-29T16:42:50;26.10;1.00
14020;DHT22;7085;51.428;6.796;2022-07-29T16:50:11;25.80;1.00
14020;DHT22;7085;51.428;6.796;2022-07-29T16:52:37;25.90;1.00
14020;DHT22;7085;51.428;6.796;2022-07-29T16:55:05;26.00;1.00
14020;DHT22;7085;51.428;6.796;2022-07-29T16:57:33;25.80;1.00
14020;DHT22;7085;51.428;6.796;2022-07-29T17:00:00;25.80;1.00
14020;DHT22;7085;51.428;6.796;2022-07-29T17:04:53;25.70;1.00
14020;DHT22;7085;51.428;6.796;2022-07-29T17:07:20;25.60;1.00
14020;DHT22;7085;51.428;6.796;2022-07-29T17:09:47;25.50;1.00
14020;DHT22;7085;51.428;6.796;2022-07-29T17:12:14;25.50;1.00
14020;DHT22;7085;51.428;6.796;2022-07-29T17:14:42;25.40;1.00
14020;DHT22;7085;51.428;6.796;2022-07-29T17:19:36;25.30;1.00
14020;DHT22;7085;51.428;6.796;2022-07-29T17:22:04;25.20;1.00
14020;DHT22;7085;51.428;6.796;2022-07-29T17:26:58;25.10;1.00
14020;DHT22;7085;51.428;6.796;2022-07-29T17:31:54;25.10;1.00
14020;DHT22;7085;51.428;6.796;2022-07-29T17:44:11;24.90;1.00
14020;DHT22;7085;51.428;6.796;2022-07-29T17:46:38;24.90;1.00
14020;DHT22;7085;51.428;6.796;2022-07-29T17:49:06;24.80;1.00
14020;DHT22;7085;51.428;6.796;2022-07-29T17:54:00;24.80;1.00
14020;DHT22;7085;51.428;6.796;2022-07-29T17:58:54;24.70;1.00
14020;DHT22;7085;51.428;6.796;2022-07-29T18:06:17;24.50;1.00
14020;DHT22;7085;51.428;6.796;2022-07-29T18:08:43;24.50;1.00
14020;DHT22;7085;51.428;6.796;2022-07-29T18:11:12;24.40;1.00
14020;DHT22;7085;51.428;6.796;2022-07-29T18:13:38;24.30;1.00
14020;DHT22;7085;51.428;6.796;2022-07-29T18:18:33;24.20;1.00
14020;DHT22;7085;51.428;6.796;2022-07-29T18:23:29;24.10;1.00
14020;DHT22;7085;51.428;6.796;2022-07-29T18:35:45;23.80;1.00
14020;DHT22;7085;51.428;6.796;2022-07-29T18:38:12;23.80;1.00
14020;DHT22;7085;51.428;6.796;2022-07-29T18:40:41;23.70;1.00
14020;DHT22;7085;51.428;6.796;2022-07-29T18:45:36;23.60;1.00
14020;DHT22;7085;51.428;6.796;2022-07-29T18:48:04;23.50;1.00
14020;DHT22;7085;51.428;6.796;2022-07-29T18:52:59;23.50;1.00
14020;DHT22;7085;51.428;6.796;2022-07-29T18:57:56;23.40;1.00
14020;DHT22;7085;51.428;6.796;2022-07-29T19:00:23;23.30;1.00
14020;DHT22;7085;51.428;6.796;2022-07-29T19:02:50;23.20;1.00
14020;DHT22;7085;51.428;6.796;2022-07-29T19:07:45;23.00;1.00
14020;DHT22;7085;51.428;6.796;2022-07-29T19:12:38;22.80;15.00
14020;DHT22;7085;51.428;6.796;2022-07-29T19:15:08;22.60;28.20
14020;DHT22;7085;51.428;6.796;2022-07-29T19:20:03;22.40;53.00
14020;DHT22;7085;51.428;6.796;2022-07-29T19:22:30;22.20;72.40
14020;DHT22;7085;51.428;6.796;2022-07-29T19:32:20;21.70;99.90
14020;DHT22;7085;51.428;6.796;2022-07-29T19:37:28;21.40;99.90
14020;DHT22;7085;51.428;6.796;2022-07-29T19:39:54;21.30;99.90
14020;DHT22;7085;51.428;6.796;2022-07-29T19:49:44;20.60;99.90
14020;DHT22;7085;51.428;6.796;2022-07-29T19:52:10;20.70;99.90
14020;DHT22;7085;51.428;6.796;2022-07-29T19:54:37;20.60;99.90
14020;DHT22;7085;51.428;6.796;2022-07-29T19:57:04;20.50;99.90
14020;DHT22;7085;51.428;6.796;2022-07-29T20:01:58;20.40;99.90
14020;DHT22;7085;51.428;6.796;2022-07-29T20:06:53;20.30;99.90
14020;DHT22;7085;51.428;6.796;2022-07-29T20:09:25;20.20;99.90
14020;DHT22;7085;51.428;6.796;2022-07-29T20:24:08;19.60;99.90
14020;DHT22;7085;51.428;6.796;2022-07-29T20:26:35;19.60;99.90
14020;DHT22;7085;51.428;6.796;2022-07-29T20:29:02;19.50;99.90
14020;DHT22;7085;51.428;6.796;2022-07-29T20:31:29;19.50;99.90
14020;DHT22;7085;51.428;6.796;2022-07-29T20:41:19;19.40;99.90
14020;DHT22;7085;51.428;6.796;2022-07-29T20:46:14;19.40;99.90
14020;DHT22;7085;51.428;6.796;2022-07-29T20:51:08;19.30;99.90
14020;DHT22;7085;51.428;6.796;2022-07-29T20:53:36;19.20;99.90
14020;DHT22;7085;51.428;6.796;2022-07-29T20:56:04;19.10;99.90
14020;DHT22;7085;51.428;6.796;2022-07-29T20:58:33;19.20;99.90
14020;DHT22;7085;51.428;6.796;2022-07-29T21:01:00;19.10;99.90
14020;DHT22;7085;51.428;6.796;2022-07-29T21:03:27;19.10;99.90
14020;DHT22;7085;51.428;6.796;2022-07-29T21:05:54;19.10;99.90
14020;DHT22;7085;51.428;6.796;2022-07-29T21:10:47;19.10;99.90
14020;DHT22;7085;51.428;6.796;2022-07-29T21:13:14;19.00;99.90
14020;DHT22;7085;51.428;6.796;2022-07-29T21:15:42;19.00;99.90
14020;DHT22;7085;51.428;6.796;2022-07-29T21:18:12;18.90;99.90
14020;DHT22;7085;51.428;6.796;2022-07-29T21:25:46;19.00;99.90
14020;DHT22;7085;51.428;6.796;2022-07-29T21:30:52;19.00;99.90
14020;DHT22;7085;51.428;6.796;2022-07-29T21:38:13;18.90;99.90
14020;DHT22;7085;51.428;6.796;2022-07-29T21:40:41;18.90;99.90
14020;DHT22;7085;51.428;6.796;2022-07-29T21:43:08;18.90;99.90
14020;DHT22;7085;51.428;6.796;2022-07-29T21:48:04;18.80;99.90
14020;DHT22;7085;51.428;6.796;2022-07-29T21:50:31;18.80;99.90
14020;DHT22;7085;51.428;6.796;2022-07-29T21:52:57;18.90;99.90
14020;DHT22;7085;51.428;6.796;2022-07-29T21:55:24;18.90;99.90
14020;DHT22;7085;51.428;6.796;2022-07-29T21:57:51;18.90;99.90
14020;DHT22;7085;51.428;6.796;2022-07-29T22:00:19;18.90;99.90
14020;DHT22;7085;51.428;6.796;2022-07-29T22:02:45;18.90;99.90
14020;DHT22;7085;51.428;6.796;2022-07-29T22:05:13;19.00;99.90
14020;DHT22;7085;51.428;6.796;2022-07-29T22:07:40;18.90;99.90
14020;DHT22;7085;51.428;6.796;2022-07-29T22:10:08;19.00;99.90
14020;DHT22;7085;51.428;6.796;2022-07-29T22:15:02;19.10;99.90
14020;DHT22;7085;51.428;6.796;2022-07-29T22:17:29;19.10;99.90
14020;DHT22;7085;51.428;6.796;2022-07-29T22:22:25;19.20;99.90
14020;DHT22;7085;51.428;6.796;2022-07-29T22:27:20;19.30;99.90
14020;DHT22;7085;51.428;6.796;2022-07-29T22:29:47;19.20;99.90
14020;DHT22;7085;51.428;6.796;2022-07-29T22:34:40;19.10;99.90
14020;DHT22;7085;51.428;6.796;2022-07-29T22:37:07;19.00;99.90
14020;DHT22;7085;51.428;6.796;2022-07-29T22:39:35;19.10;99.90
14020;DHT22;7085;51.428;6.796;2022-07-29T22:44:29;19.10;99.90
14020;DHT22;7085;51.428;6.796;2022-07-29T22:46:56;19.10;99.90
14020;DHT22;7085;51.428;6.796;2022-07-29T22:49:23;19.10;99.90
14020;DHT22;7085;51.428;6.796;2022-07-29T22:56:45;19.10;99.90
14020;DHT22;7085;51.428;6.796;2022-07-29T23:01:38;18.90;99.90
14020;DHT22;7085;51.428;6.796;2022-07-29T23:04:06;18.90;99.90
14020;DHT22;7085;51.428;6.796;2022-07-29T23:06:32;18.80;99.90
14020;DHT22;7085;51.428;6.796;2022-07-29T23:11:26;18.60;99.90